Lempster, New Hampshire
Current Conditions -  °F | °C
As of 1:23 PM on Monday 22 Dec 2014 (Local Time) from KVSF Reporting Station
Overcast Overcast  
Wind Chill: 33°   Ceiling: 1900
Heat Index: 33°   Visibility: 8mi
Dew Point: 29°   Wind: 0mph
Humidity: 85%   Direction: NA
Pressure: 30.33"   Gusts: NA
Location:  43.24°N, 72.21°W
Report Text: KVSF 221823Z AUTO 00000KT 8SM BKN019 OVC026 01/M02 A3033 RMK AO2 SNE1759B07E20 P0000 T00061017 TSNO
Loading
Personal Weather Stations






























Interactive Weather Map New forecast layout! Learn more

10-Day Weather Forecast

Advertisements
Track Severe Weather on mobile